Time;durP1;ratioP1;P1;durP2;ratioP2;P2;SDS_P1;SDS_P2;PMS_P1;PMS_P2;Temp;Humidity;BMP_temperature;BMP_pressure;BME280_temperature;BME280_humidity;BME280_pressure;Samples;Min_cycle;Max_cycle;Signal;HPM_P1;HPM_P2
2022/06/06 00:00:03;;;;;;;0.00;0.00;;;;;;;14.70;65.41;101074.84;7357604;19;20465;-62
2022/06/06 00:02:30;;;;;;;0.00;0.00;;;;;;;14.64;65.63;101064.53;7360042;19;20117;-63
2022/06/06 00:04:57;;;;;;;0.08;0.08;;;;;;;14.65;65.47;101066.28;7361023;19;20022;-63
2022/06/06 00:07:22;;;;;;;0.03;0.03;;;;;;;14.64;65.35;101064.53;7356232;19;20009;-62
2022/06/06 00:09:48;;;;;;;0.00;0.00;;;;;;;14.64;65.26;101061.03;7361485;19;20010;-62
2022/06/06 00:12:15;;;;;;;0.00;0.00;;;;;;;14.63;65.39;101068.06;7360787;19;20093;-63
2022/06/06 00:14:42;;;;;;;0.00;0.00;;;;;;;14.60;65.36;101065.56;7360393;19;20014;-63
2022/06/06 00:17:07;;;;;;;0.00;0.00;;;;;;;14.62;65.31;101061.09;7358860;19;20007;-63
2022/06/06 00:19:32;;;;;;;0.00;0.00;;;;;;;14.56;65.20;101044.69;7361707;19;20750;-63
2022/06/06 00:21:58;;;;;;;0.00;0.00;;;;;;;14.62;65.37;101049.72;7361615;19;20013;-62
2022/06/06 00:24:23;;;;;;;0.00;0.00;;;;;;;14.62;65.76;101053.22;7364435;19;20002;-63
2022/06/06 00:26:49;;;;;;;0.00;0.00;;;;;;;14.62;65.66;101047.09;7362099;19;20052;-63
2022/06/06 00:29:17;;;;;;;0.00;0.00;;;;;;;14.63;65.46;101046.19;7344315;19;20014;-60
2022/06/06 00:37:13;;;;;;;0.10;0.10;;;;;;;14.60;65.46;101039.28;7362686;19;20026;-63
2022/06/06 00:39:41;;;;;;;0.00;0.00;;;;;;;14.62;65.89;101045.34;7361514;19;20022;-62
2022/06/06 00:42:18;;;;;;;0.00;0.00;;;;;;;14.64;64.92;101038.25;7362186;19;20484;-61
2022/06/06 00:44:44;;;;;;;;;;;;;;;14.67;63.60;101042.56;7365820;19;20026;-63
2022/06/06 00:47:38;;;;;;;0.00;0.00;;;;;;;14.66;64.54;101043.47;7363801;19;19910;-61
2022/06/06 00:50:21;;;;;;;0.00;0.00;;;;;;;14.48;65.38;101021.28;7261612;19;2004273;-63
2022/06/06 00:52:51;;;;;;;0.00;0.00;;;;;;;14.59;65.65;101048.06;7362523;19;20038;-62
2022/06/06 00:55:24;;;;;;;0.00;0.00;;;;;;;14.56;65.52;101045.53;7363757;19;20010;-62
2022/06/06 00:57:58;;;;;;;0.00;0.00;;;;;;;14.53;65.62;101045.63;7362857;19;20010;-62
2022/06/06 01:00:24;;;;;;;0.00;0.00;;;;;;;14.39;65.88;101026.81;7365445;19;20379;-62
2022/06/06 01:02:53;;;;;;;0.00;0.00;;;;;;;14.48;65.59;101043.16;7357704;19;20021;-63
2022/06/06 01:05:20;;;;;;;0.00;0.00;;;;;;;14.46;66.04;101041.47;7363091;19;20010;-61
2022/06/06 01:07:46;;;;;;;0.00;0.00;;;;;;;14.44;66.05;101030.13;7364991;19;20014;-63
2022/06/06 01:10:11;;;;;;;0.00;0.00;;;;;;;14.43;66.23;101038.94;7346540;19;20042;-62
2022/06/06 01:12:38;;;;;;;0.00;0.00;;;;;;;14.42;66.16;101024.09;7351061;19;20007;-60
2022/06/06 01:15:09;;;;;;;0.00;0.00;;;;;;;14.45;65.56;101026.63;7351297;19;20010;-61
2022/06/06 01:17:48;;;;;;;0.00;0.00;;;;;;;14.43;65.61;101024.03;7347889;19;20010;-61
2022/06/06 01:20:47;;;;;;;0.00;0.00;;;;;;;14.45;64.97;101037.13;7350039;19;20014;-62
2022/06/06 01:23:42;;;;;;;0.00;0.00;;;;;;;14.44;65.63;101024.88;7251092;19;2004114;-63
2022/06/06 01:26:27;;;;;;;0.00;0.00;;;;;;;14.42;65.89;101031.97;7250940;19;2004671;-62
2022/06/06 01:29:28;;;;;;;0.00;0.00;;;;;;;14.46;64.63;101023.09;7354045;19;20070;-63
2022/06/06 01:32:08;;;;;;;0.00;0.00;;;;;;;14.42;65.32;101029.34;7247919;19;2004207;-62
2022/06/06 01:34:38;;;;;;;0.00;0.00;;;;;;;14.44;66.38;101030.13;7350412;19;20975;-62
2022/06/06 01:37:29;;;;;;;0.00;0.00;;;;;;;14.45;65.13;101031.88;7352819;19;20015;-62
2022/06/06 01:39:57;;;;;;;0.00;0.00;;;;;;;14.40;66.20;101029.41;7350435;19;20007;-62
2022/06/06 01:42:38;;;;;;;0.00;0.00;;;;;;;14.41;65.67;101040.78;7353544;19;20014;-59
2022/06/06 01:45:11;;;;;;;0.00;0.00;;;;;;;14.38;66.18;101035.59;7350665;19;20015;-62
2022/06/06 01:47:41;;;;;;;0.00;0.00;;;;;;;14.31;66.16;101028.84;7354489;19;20010;-62
2022/06/06 01:50:09;;;;;;;0.00;0.00;;;;;;;14.35;65.85;101030.47;7354955;19;20015;-62
2022/06/06 01:53:02;;;;;;;0.00;0.00;;;;;;;14.35;64.83;101026.06;7352242;19;20020;-62
2022/06/06 01:55:30;;;;;;;0.00;0.00;;;;;;;14.25;65.82;101022.88;7352163;19;20028;-63
2022/06/06 01:57:57;;;;;;;;;;;;;;;14.35;64.07;101033.09;7348575;19;20005;-62
2022/06/06 02:00:23;;;;;;;0.00;0.00;;;;;;;14.27;65.89;101031.56;7363030;19;19926;-61
2022/06/06 02:02:49;;;;;;;0.00;0.00;;;;;;;14.24;66.24;101028.16;7363817;19;20084;-62
2022/06/06 02:05:15;;;;;;;0.00;0.00;;;;;;;14.24;66.03;101017.66;7361452;19;20521;-63
2022/06/06 02:07:44;;;;;;;0.00;0.00;;;;;;;14.23;65.85;101032.56;7363938;19;20518;-63
2022/06/06 02:10:11;;;;;;;0.00;0.00;;;;;;;14.21;66.09;101021.25;7363228;19;19998;-62
2022/06/06 02:12:38;;;;;;;0.00;0.00;;;;;;;14.18;66.20;101023.97;7362041;19;20017;-62
2022/06/06 02:15:05;;;;;;;0.00;0.00;;;;;;;14.19;66.15;101030.97;7361038;19;20767;-60
2022/06/06 02:17:31;;;;;;;0.00;0.00;;;;;;;14.18;66.24;101023.97;7365440;19;20845;-63
2022/06/06 02:19:56;;;;;;;0.00;0.00;;;;;;;14.17;66.19;101019.63;7361778;19;20010;-63
2022/06/06 02:22:22;;;;;;;0.00;0.00;;;;;;;14.16;65.84;101025.81;7362097;19;20034;-63
2022/06/06 02:24:47;;;;;;;0.00;0.00;;;;;;;14.17;66.38;101029.28;7359662;19;20015;-63
2022/06/06 02:27:13;;;;;;;0.00;0.00;;;;;;;14.16;66.51;101020.56;7362498;19;20007;-63
2022/06/06 02:29:38;;;;;;;0.00;0.00;;;;;;;14.14;65.98;101014.50;7359729;19;20018;-62
2022/06/06 02:32:05;;;;;;;0.00;0.00;;;;;;;14.16;65.92;101014.44;7364358;19;20021;-62
2022/06/06 02:34:30;;;;;;;0.10;0.10;;;;;;;14.13;66.12;101012.75;7362010;19;20013;-62
2022/06/06 02:36:56;;;;;;;0.00;0.00;;;;;;;14.13;65.89;101014.53;7362226;19;20656;-62
2022/06/06 02:39:21;;;;;;;0.00;0.00;;;;;;;14.15;66.03;101013.59;7362906;19;20011;-63
2022/06/06 02:41:47;;;;;;;0.00;0.00;;;;;;;14.14;66.12;101016.25;7362777;19;20739;-63
2022/06/06 02:44:12;;;;;;;0.00;0.00;;;;;;;14.14;65.94;101014.50;7360633;19;20017;-62
2022/06/06 02:46:38;;;;;;;0.00;0.00;;;;;;;14.14;66.28;101011.88;7361167;19;20586;-62
2022/06/06 02:49:03;;;;;;;0.00;0.00;;;;;;;14.11;66.22;101006.72;7356225;19;20533;-62
2022/06/06 02:51:28;;;;;;;0.00;0.00;;;;;;;14.13;66.34;101004.88;7362427;19;20018;-63
2022/06/06 02:53:54;;;;;;;0.10;0.10;;;;;;;14.13;65.88;101004.88;7357972;19;20651;-62
2022/06/06 02:56:19;;;;;;;0.00;0.00;;;;;;;14.13;66.00;101004.88;7360817;19;20038;-62
2022/06/06 02:58:46;;;;;;;0.00;0.00;;;;;;;14.12;66.16;100997.91;7356718;19;20017;-62
2022/06/06 03:01:12;;;;;;;0.00;0.00;;;;;;;14.13;66.22;101002.25;7363183;19;20006;-63
2022/06/06 03:03:39;;;;;;;0.00;0.00;;;;;;;14.11;66.17;100996.19;7363741;19;20160;-62
2022/06/06 03:06:05;;;;;;;0.00;0.00;;;;;;;14.10;66.42;100997.13;7346359;19;20499;-62
2022/06/06 03:08:45;;;;;;;0.00;0.00;;;;;;;14.13;65.67;100998.78;7363336;19;20032;-63
2022/06/06 03:11:39;;;;;;;0.08;0.08;;;;;;;14.11;65.54;100996.19;7362969;19;20007;-62
2022/06/06 03:14:34;;;;;;;0.00;0.00;;;;;;;14.08;65.47;100993.66;7261821;19;2004293;-62
2022/06/06 03:20:48;;;;;;;0.00;0.00;;;;;;;13.94;65.53;100977.53;7154814;19;2004460;-61
2022/06/06 03:23:24;;;;;;;0.00;0.00;;;;;;;13.99;65.74;100992.22;7261560;19;2004490;-61
2022/06/06 03:25:55;;;;;;;0.00;0.00;;;;;;;13.96;65.60;100994.06;7363586;19;20003;-62
2022/06/06 03:28:32;;;;;;;0.00;0.00;;;;;;;13.92;65.71;100990.69;7368318;19;20485;-62
2022/06/06 03:31:00;;;;;;;;;;;;;;;13.93;64.83;100988.91;7366658;19;20382;-60
2022/06/06 03:33:41;;;;;;;0.00;0.00;;;;;;;13.89;65.71;100984.66;7367241;19;19919;-62
2022/06/06 03:36:15;;;;;;;0.00;0.00;;;;;;;13.85;65.49;100977.81;7367423;19;20009;-63
2022/06/06 03:39:02;;;;;;;0.00;0.00;;;;;;;13.81;65.80;100971.78;7366913;19;20010;-62
2022/06/06 03:41:46;;;;;;;0.00;0.00;;;;;;;13.76;65.42;100969.31;7366399;19;20006;-62
2022/06/06 03:44:33;;;;;;;0.00;0.00;;;;;;;13.70;65.99;100964.25;7366988;19;20010;-63
2022/06/06 03:47:11;;;;;;;0.00;0.00;;;;;;;13.67;65.49;100959.09;7365605;19;20026;-62
2022/06/06 03:50:07;;;;;;;0.00;0.00;;;;;;;13.64;65.08;100963.59;7366677;19;20013;-62
2022/06/06 03:52:50;;;;;;;0.00;0.00;;;;;;;13.60;65.43;100954.09;7264822;19;2004219;-62
2022/06/06 03:55:49;;;;;;;0.00;0.00;;;;;;;13.20;64.89;100898.44;7363380;19;20093;-62
2022/06/06 03:58:17;;;;;;;0.00;0.00;;;;;;;13.48;65.86;100952.69;7258479;19;2004229;-63
2022/06/06 04:00:45;;;;;;;0.00;0.00;;;;;;;13.43;65.97;100955.47;7366921;19;20003;-63
2022/06/06 04:03:11;;;;;;;;;;;;;;;13.43;64.64;100954.59;7365782;19;20023;-60
2022/06/06 04:05:38;;;;;;;0.00;0.00;;;;;;;13.36;65.76;100958.31;7364140;19;19922;-61
2022/06/06 04:08:06;;;;;;;0.00;0.00;;;;;;;13.30;66.27;100956.75;7365862;19;20462;-62
2022/06/06 04:10:39;;;;;;;0.00;0.00;;;;;;;13.26;65.75;100943.78;7366129;19;19998;-62
2022/06/06 04:13:27;;;;;;;0.00;0.00;;;;;;;13.24;66.13;100959.56;7367954;19;20006;-62
2022/06/06 04:16:12;;;;;;;0.00;0.00;;;;;;;13.20;65.85;100958.75;7366617;19;20010;-62
2022/06/06 04:18:58;;;;;;;0.00;0.00;;;;;;;13.16;65.60;100962.34;7364236;19;20002;-62
2022/06/06 04:21:42;;;;;;;0.00;0.00;;;;;;;13.13;65.72;100965.09;7364668;19;20002;-62
2022/06/06 04:24:14;;;;;;;0.00;0.00;;;;;;;13.09;66.02;100966.06;7367460;19;20013;-63
2022/06/06 04:26:51;;;;;;;0.00;0.00;;;;;;;13.06;65.47;100968.78;7367448;19;20011;-62
2022/06/06 04:29:46;;;;;;;0.00;0.00;;;;;;;13.04;65.39;100977.59;7365574;19;20027;-63
2022/06/06 04:32:17;;;;;;;0.00;0.00;;;;;;;12.96;66.17;100973.41;7264649;19;2004576;-63
2022/06/06 04:34:58;;;;;;;0.00;0.00;;;;;;;12.96;65.62;100975.19;7363897;19;20038;-62
2022/06/06 04:37:37;;;;;;;0.00;0.00;;;;;;;12.93;65.82;100975.28;7367362;19;20002;-62
2022/06/06 04:40:15;;;;;;;0.00;0.00;;;;;;;12.88;66.14;100978.03;7364250;19;20006;-63
2022/06/06 04:42:52;;;;;;;0.00;0.00;;;;;;;12.86;65.45;100971.09;7365965;19;20045;-62
2022/06/06 04:45:40;;;;;;;0.00;0.00;;;;;;;12.84;65.31;100975.53;7365206;19;20010;-62
2022/06/06 04:48:07;;;;;;;0.00;0.00;;;;;;;12.78;66.48;100976.56;7366264;19;20085;-62
2022/06/06 04:50:33;;;;;;;0.00;0.00;;;;;;;12.71;66.07;100970.59;7366700;19;20025;-63
2022/06/06 04:53:07;;;;;;;0.00;0.00;;;;;;;12.75;65.88;100975.78;7365214;19;20002;-62
2022/06/06 04:55:33;;;;;;;0.00;0.00;;;;;;;12.69;66.02;100985.53;7364663;19;20010;-62
2022/06/06 04:58:02;;;;;;;0.00;0.00;;;;;;;12.68;65.78;100983.81;7367267;19;20026;-62
2022/06/06 05:00:34;;;;;;;0.00;0.00;;;;;;;12.66;66.24;100988.22;7365787;19;20103;-62
2022/06/06 05:03:00;;;;;;;0.00;0.00;;;;;;;12.63;66.28;100988.31;7366448;19;20009;-62
2022/06/06 05:05:46;;;;;;;0.00;0.00;;;;;;;12.63;65.84;100982.22;7365229;19;20692;-63
2022/06/06 05:08:21;;;;;;;0.00;0.00;;;;;;;12.54;66.10;100972.84;7365233;19;20018;-62
2022/06/06 05:10:55;;;;;;;0.00;0.00;;;;;;;12.65;66.29;100991.75;7366906;19;20005;-63
2022/06/06 05:13:57;;;;;;;0.00;0.00;;;;;;;12.70;65.81;100992.47;7367301;19;20468;-62
2022/06/06 05:16:50;;;;;;;0.00;0.00;;;;;;;12.71;65.88;100991.56;7262837;19;2004235;-63
2022/06/06 05:19:35;;;;;;;0.00;0.00;;;;;;;12.73;65.84;100995.03;7363548;19;20106;-62
2022/06/06 05:22:31;;;;;;;0.00;0.00;;;;;;;12.75;66.13;100981.03;7364421;19;20014;-62
2022/06/06 05:25:22;;;;;;;0.00;0.00;;;;;;;12.77;65.88;100980.06;7263801;19;2004432;-60
2022/06/06 05:28:04;;;;;;;0.00;0.00;;;;;;;12.79;65.68;100982.66;7363851;19;20014;-63
2022/06/06 05:30:55;;;;;;;0.00;0.00;;;;;;;12.75;66.34;100976.63;7364135;19;20002;-61
2022/06/06 05:33:39;;;;;;;0.00;0.00;;;;;;;12.85;65.56;100988.59;7262454;19;2004549;-63
2022/06/06 05:36:17;;;;;;;0.00;0.00;;;;;;;12.87;66.54;100991.16;7364453;19;20741;-62
2022/06/06 05:39:13;;;;;;;0.00;0.00;;;;;;;12.92;66.23;100999.75;7361935;19;20019;-62
2022/06/06 05:42:20;;;;;;;0.00;0.00;;;;;;;12.98;66.27;100999.59;7262621;19;2004320;-63
2022/06/06 05:45:10;;;;;;;0.10;0.10;;;;;;;13.04;66.25;100999.44;7259497;19;2004663;-62
2022/06/06 05:47:47;;;;;;;0.00;0.00;;;;;;;13.09;66.40;101002.78;7362285;19;20010;-62
2022/06/06 05:50:27;;;;;;;0.00;0.00;;;;;;;13.16;66.59;101004.31;7364139;19;20016;-62
2022/06/06 05:53:05;;;;;;;0.00;0.00;;;;;;;13.20;66.52;101011.19;7363848;19;20010;-62
2022/06/06 05:55:53;;;;;;;0.00;0.00;;;;;;;13.30;66.19;101017.06;7362791;19;20339;-62
2022/06/06 05:58:47;;;;;;;0.03;0.03;;;;;;;13.40;66.06;101023.78;7360571;19;20018;-61
2022/06/06 06:01:40;;;;;;;0.00;0.00;;;;;;;13.49;66.17;101014.78;7263647;19;2004457;-63
2022/06/06 06:04:24;;;;;;;0.00;0.00;;;;;;;13.56;65.74;101018.94;7262310;19;2004458;-63
2022/06/06 06:07:12;;;;;;;0.05;0.05;;;;;;;13.63;65.40;101020.44;7365079;19;20831;-62
2022/06/06 06:10:14;;;;;;;0.00;0.00;;;;;;;13.70;65.24;101019.38;7363852;19;20639;-61
2022/06/06 06:13:04;;;;;;;0.00;0.00;;;;;;;13.75;65.52;101020.09;7261621;19;2004509;-62
2022/06/06 06:15:40;;;;;;;0.00;0.00;;;;;;;13.81;65.15;101012.94;7363783;19;20017;-62
2022/06/06 06:18:13;;;;;;;0.00;0.00;;;;;;;13.74;65.52;101002.63;7361752;19;20450;-62
2022/06/06 06:20:45;;;;;;;0.00;0.00;;;;;;;13.87;66.18;101018.00;7363623;19;20843;-63
2022/06/06 06:23:16;;;;;;;0.00;0.00;;;;;;;13.92;65.78;101016.94;7364692;19;20006;-62
2022/06/06 06:25:41;;;;;;;0.00;0.00;;;;;;;13.82;65.81;101004.16;7364944;19;20525;-63
2022/06/06 06:28:10;;;;;;;0.00;0.00;;;;;;;13.99;65.77;101025.50;7364127;19;22198;-62
2022/06/06 06:30:57;;;;;;;0.00;0.00;;;;;;;14.07;65.16;101025.25;7365728;19;20034;-62
2022/06/06 06:33:28;;;;;;;0.00;0.00;;;;;;;14.08;65.61;101026.94;7360257;19;20010;-63
2022/06/06 06:35:53;;;;;;;0.00;0.00;;;;;;;14.12;65.68;101032.06;7365704;19;20010;-63
2022/06/06 06:38:37;;;;;;;0.00;0.00;;;;;;;14.23;65.35;101027.31;7362901;19;20067;-63
2022/06/06 06:41:10;;;;;;;0.00;0.00;;;;;;;14.28;65.87;101029.78;7362775;19;20023;-63
2022/06/06 06:44:01;;;;;;;0.00;0.00;;;;;;;14.37;65.06;101018.13;7364559;19;20034;-62
2022/06/06 06:46:40;;;;;;;0.00;0.00;;;;;;;14.41;65.86;101019.75;7362137;19;20007;-63
2022/06/06 06:49:05;;;;;;;0.00;0.00;;;;;;;14.47;65.54;101009.03;7365047;19;20845;-63
2022/06/06 06:51:45;;;;;;;0.05;0.05;;;;;;;14.59;65.70;101013.88;7367703;19;20018;-62
2022/06/06 06:55:01;;;;;;;0.00;0.00;;;;;;;14.71;65.02;101017.88;7370038;19;21155;-61
2022/06/06 06:57:58;;;;;;;0.10;0.10;;;;;;;14.81;64.99;101019.28;7262815;19;2004424;-60
2022/06/06 07:00:24;;;;;;;;;;;;;;;14.95;64.32;101017.03;7267568;19;2004306;-63
2022/06/06 07:09:15;;;;;;;0.00;0.00;;;;;;;15.28;64.22;101017.56;7268327;19;2004396;-63
2022/06/06 07:12:19;;;;;;;0.00;0.00;;;;;;;15.42;64.23;101016.19;7267588;19;2004263;-62
2022/06/06 07:15:16;;;;;;;0.00;0.00;;;;;;;15.54;64.37;101015.72;7262916;19;2004343;-63
2022/06/06 07:17:52;;;;;;;0.00;0.00;;;;;;;15.64;64.27;101017.09;7266091;19;2004469;-60
2022/06/06 07:20:19;;;;;;;0.00;0.00;;;;;;;15.70;65.17;101013.38;7367715;19;20082;-63
2022/06/06 07:23:02;;;;;;;0.00;0.00;;;;;;;15.82;64.44;101003.22;7364064;19;20514;-63
2022/06/06 07:25:31;;;;;;;0.00;0.00;;;;;;;15.88;64.34;101009.19;7368282;19;20023;-63
2022/06/06 07:27:57;;;;;;;0.00;0.00;;;;;;;15.96;64.31;101007.06;7366964;19;20110;-63
2022/06/06 07:30:24;;;;;;;0.00;0.00;;;;;;;16.05;64.36;101001.44;7368324;19;20755;-63
2022/06/06 07:33:26;;;;;;;0.00;0.00;;;;;;;16.21;63.94;101006.94;7367083;19;20010;-63
2022/06/06 07:35:54;;;;;;;0.00;0.00;;;;;;;16.24;63.63;101010.31;7265077;19;2005960;-63
2022/06/06 07:39:01;;;;;;;0.10;0.10;;;;;;;16.39;63.43;101013.25;7369708;19;20529;-62
2022/06/06 07:41:33;;;;;;;0.00;0.00;;;;;;;16.45;62.74;101012.97;7265197;19;2004373;-62
2022/06/06 07:44:18;;;;;;;0.00;0.00;;;;;;;16.46;62.74;101009.41;7367220;19;20019;-62
2022/06/06 07:47:03;;;;;;;0.00;0.00;;;;;;;16.58;62.67;101011.53;7368919;19;20010;-63
2022/06/06 07:49:46;;;;;;;0.05;0.05;;;;;;;16.58;62.80;101001.00;7363913;19;20358;-63
2022/06/06 07:52:26;;;;;;;0.00;0.00;;;;;;;16.70;62.52;101005.72;7363281;19;20056;-62
2022/06/06 07:55:24;;;;;;;0.00;0.00;;;;;;;16.75;62.81;101009.06;7362652;19;22789;-63
2022/06/06 07:57:55;;;;;;;0.00;0.00;;;;;;;16.78;62.83;101008.94;7259674;19;2004363;-63
2022/06/06 08:00:25;;;;;;;0.00;0.00;;;;;;;16.89;62.25;101012.88;7355811;19;20042;-61
2022/06/06 08:03:09;;;;;;;0.00;0.00;;;;;;;16.96;62.17;101011.69;7362220;19;20018;-63
2022/06/06 08:06:05;;;;;;;0.00;0.00;;;;;;;17.12;61.61;101012.72;7356796;19;20364;-62
2022/06/06 08:08:38;;;;;;;0.00;0.00;;;;;;;17.20;61.38;101010.59;7256501;19;2004403;-63
2022/06/06 08:11:24;;;;;;;0.00;0.00;;;;;;;17.34;61.39;101016.09;7360442;19;20998;-63
2022/06/06 08:14:47;;;;;;;0.10;0.10;;;;;;;17.42;61.32;101012.25;7359087;19;20010;-61
2022/06/06 08:17:56;;;;;;;0.00;0.00;;;;;;;17.54;60.80;101009.06;7149600;19;2005322;-63
2022/06/06 08:20:27;;;;;;;0.00;0.00;;;;;;;17.56;60.57;101013.31;7252435;19;2004304;-63
2022/06/06 08:22:58;;;;;;;0.00;0.00;;;;;;;17.71;60.09;101011.75;7361289;19;20377;-63
2022/06/06 08:25:23;;;;;;;0.00;0.00;;;;;;;17.69;60.10;100997.75;7359935;19;20015;-63
2022/06/06 08:27:51;;;;;;;0.00;0.00;;;;;;;17.86;60.22;100999.63;7362279;19;20021;-62
2022/06/06 08:30:19;;;;;;;0.00;0.00;;;;;;;17.96;59.65;101005.31;7364766;19;20013;-62
2022/06/06 08:32:46;;;;;;;0.00;0.00;;;;;;;18.05;58.77;101010.16;7363793;19;20094;-63
2022/06/06 08:35:12;;;;;;;0.00;0.00;;;;;;;18.14;59.15;101010.53;7362177;19;20812;-63
2022/06/06 08:38:13;;;;;;;0.00;0.00;;;;;;;18.33;59.60;101005.22;7363114;19;20013;-63
2022/06/06 08:40:57;;;;;;;0.00;0.00;;;;;;;18.36;58.12;100999.78;7265846;19;2004286;-64
2022/06/06 08:43:50;;;;;;;0.10;0.10;;;;;;;18.52;57.95;101001.66;7367961;19;20020;-63
2022/06/06 08:46:28;;;;;;;0.08;0.08;;;;;;;18.58;57.79;101003.97;7263507;19;2004270;-63
2022/06/06 08:52:19;;;;;;;0.00;0.00;;;;;;;18.67;56.58;101003.50;7258989;19;2004531;-64
2022/06/06 08:55:39;;;;;;;0.00;0.00;;;;;;;18.71;57.06;101005.09;7363976;19;20009;-63
2022/06/06 08:58:04;;;;;;;0.00;0.00;;;;;;;18.60;55.65;100991.50;7154581;19;2004367;-63
2022/06/06 09:00:57;;;;;;;0.00;0.00;;;;;;;18.66;57.02;101001.81;7366660;19;20445;-63
2022/06/06 09:03:31;;;;;;;0.00;0.00;;;;;;;18.59;55.88;101001.22;7262477;19;2004492;-63
2022/06/06 09:06:17;;;;;;;0.00;0.00;;;;;;;18.59;56.40;101003.03;7360534;19;20710;-62
2022/06/06 09:09:08;;;;;;;0.10;0.10;;;;;;;18.55;56.53;101009.41;7364007;19;20037;-63
2022/06/06 09:12:04;;;;;;;0.00;0.00;;;;;;;18.50;55.79;100999.09;7367795;19;20422;-63
2022/06/06 09:14:45;;;;;;;0.00;0.00;;;;;;;18.45;55.87;100994.94;7260013;19;2005513;-63
2022/06/06 09:17:13;;;;;;;0.08;0.08;;;;;;;18.42;55.24;101004.75;7362914;19;20540;-63
2022/06/06 09:20:03;;;;;;;0.00;0.00;;;;;;;18.42;56.47;101004.75;7362093;19;20518;-63
2022/06/06 09:22:32;;;;;;;0.00;0.00;;;;;;;18.35;55.48;101007.78;7363559;19;20010;-63
2022/06/06 09:25:31;;;;;;;0.03;0.03;;;;;;;18.34;56.08;101004.25;7362721;19;20010;-62
2022/06/06 09:28:11;;;;;;;0.00;0.00;;;;;;;18.32;55.61;100998.22;7260509;19;2004386;-63
2022/06/06 09:30:55;;;;;;;0.10;0.10;;;;;;;18.35;56.14;101008.66;7365730;19;20025;-63
2022/06/06 09:33:38;;;;;;;0.00;0.00;;;;;;;18.39;55.94;101010.19;7364528;19;20041;-62
2022/06/06 09:36:18;;;;;;;0.03;0.03;;;;;;;18.46;55.86;101007.25;7365077;19;20031;-62
2022/06/06 09:39:05;;;;;;;0.00;0.00;;;;;;;18.49;55.12;101009.72;7360508;19;20020;-62
2022/06/06 09:41:34;;;;;;;0.05;0.05;;;;;;;18.49;55.13;101007.06;7363953;19;20006;-63
2022/06/06 09:44:30;;;;;;;0.10;0.10;;;;;;;18.60;56.00;101010.91;7363062;19;20022;-63
2022/06/06 09:46:59;;;;;;;0.00;0.00;;;;;;;18.59;54.34;101010.97;7258669;19;2004589;-62
2022/06/06 09:49:48;;;;;;;0.00;0.00;;;;;;;18.69;53.90;101001.66;7361834;19;20655;-62
2022/06/06 09:52:42;;;;;;;0.00;0.00;;;;;;;18.77;54.75;101004.78;7360627;19;20926;-63
2022/06/06 09:59:04;;;;;;;0.00;0.00;;;;;;;19.13;55.10;101006.41;7153441;19;2004568;-62
2022/06/06 10:02:13;;;;;;;0.00;0.00;;;;;;;19.36;55.41;101016.63;7251956;19;2004379;-62
2022/06/06 10:04:57;;;;;;;0.00;0.00;;;;;;;19.55;51.92;101012.97;7258448;19;2004470;-63
2022/06/06 10:07:51;;;;;;;0.10;0.10;;;;;;;19.86;53.49;101012.97;7359735;19;20014;-63
2022/06/06 10:10:39;;;;;;;0.00;0.00;;;;;;;20.08;51.09;101009.13;7258987;19;2004413;-61
2022/06/06 10:13:14;;;;;;;0.00;0.00;;;;;;;20.36;52.38;101006.56;7355035;19;20051;-63
2022/06/06 10:16:14;;;;;;;0.00;0.00;;;;;;;20.58;51.78;101005.31;7351767;19;20014;-64
2022/06/06 10:19:01;;;;;;;0.10;0.10;;;;;;;20.78;51.99;101001.47;7259378;19;2003980;-64
2022/06/06 10:21:45;;;;;;;0.00;0.00;;;;;;;20.89;49.89;101010.53;7354879;19;20011;-64
2022/06/06 10:24:23;;;;;;;0.10;0.10;;;;;;;21.03;50.84;100990.22;7357508;19;20033;-63
2022/06/06 10:26:59;;;;;;;0.00;0.00;;;;;;;21.14;50.09;101003.72;7347460;19;20026;-63
2022/06/06 10:32:54;;;;;;;0.00;0.00;;;;;;;21.50;50.64;101005.88;7250212;19;2004004;-62
2022/06/06 10:35:58;;;;;;;0.00;0.00;;;;;;;21.69;49.85;101010.88;7258695;19;2004494;-63
2022/06/06 10:38:35;;;;;;;0.10;0.10;;;;;;;21.76;47.29;101007.72;7261761;19;2004536;-64
2022/06/06 10:41:33;;;;;;;0.10;0.10;;;;;;;22.00;49.16;101004.44;7363865;19;20110;-63
2022/06/06 10:44:16;;;;;;;0.00;0.00;;;;;;;22.02;46.42;101011.34;7258196;19;2004377;-63
2022/06/06 10:47:09;;;;;;;0.10;0.10;;;;;;;22.27;49.20;101009.75;7356243;19;20459;-64
2022/06/06 10:49:56;;;;;;;0.10;0.10;;;;;;;22.40;48.45;101002.63;7255127;19;2004470;-63
2022/06/06 10:52:31;;;;;;;;;;;;;;;22.57;50.37;101003.34;7356919;19;20014;-64
2022/06/06 10:55:45;;;;;;;0.03;0.03;;;;;;;22.70;48.59;100998.84;7357604;19;19952;-64
2022/06/06 10:58:46;;;;;;;0.03;0.03;;;;;;;22.96;48.47;101003.28;7250802;19;2004365;-64
2022/06/06 11:01:36;;;;;;;0.10;0.10;;;;;;;23.13;45.17;101003.91;7251983;19;2004613;-63
2022/06/06 11:04:38;;;;;;;0.10;0.10;;;;;;;23.45;47.31;101005.13;7356352;19;20017;-64
2022/06/06 11:07:25;;;;;;;0.10;0.10;;;;;;;23.56;44.42;101005.19;7258962;19;2004377;-64
2022/06/06 11:10:15;;;;;;;0.03;0.03;;;;;;;23.77;44.74;101005.50;7360874;19;20007;-64
2022/06/06 11:13:18;;;;;;;0.10;0.10;;;;;;;23.96;45.63;100996.97;7359422;19;20006;-64
2022/06/06 11:16:08;;;;;;;0.10;0.10;;;;;;;24.12;43.81;101001.16;7258687;19;2004586;-64
2022/06/06 11:19:15;;;;;;;0.10;0.10;;;;;;;24.40;44.27;100998.16;7357344;19;20023;-64
2022/06/06 11:21:57;;;;;;;0.00;0.00;;;;;;;24.63;43.96;100996.38;7256850;19;2004639;-64
2022/06/06 11:24:47;;;;;;;0.00;0.00;;;;;;;24.68;41.64;100998.72;7363055;19;20010;-64
2022/06/06 11:27:22;;;;;;;0.00;0.00;;;;;;;24.75;40.66;100994.63;7261893;19;2004829;-63
2022/06/06 11:30:02;;;;;;;0.10;0.10;;;;;;;25.05;42.20;100984.19;7362850;19;20556;-63
2022/06/06 11:32:46;;;;;;;0.10;0.10;;;;;;;25.24;39.34;100990.78;7361389;19;20008;-64
2022/06/06 11:35:29;;;;;;;0.00;0.00;;;;;;;25.59;40.95;100986.09;7363121;19;20027;-64
2022/06/06 11:38:36;;;;;;;0.03;0.03;;;;;;;25.90;41.87;100988.97;7362582;19;20010;-63
2022/06/06 11:41:12;;;;;;;0.00;0.00;;;;;;;26.13;39.35;100985.25;7261761;19;2004271;-64
2022/06/06 11:43:49;;;;;;;0.10;0.10;;;;;;;26.40;40.05;100981.22;7369903;19;20011;-64
2022/06/06 11:46:33;;;;;;;0.10;0.10;;;;;;;26.68;41.11;100986.94;7365743;19;20015;-64
2022/06/06 11:49:22;;;;;;;0.10;0.10;;;;;;;26.96;41.72;100988.06;7363475;19;20657;-64
2022/06/06 11:52:13;;;;;;;0.10;0.10;;;;;;;27.30;40.89;100986.84;7367264;19;20044;-64
2022/06/06 11:55:00;;;;;;;0.10;0.10;;;;;;;27.58;37.97;100987.06;7360598;19;20010;-64
2022/06/06 11:57:43;;;;;;;0.10;0.10;;;;;;;28.02;39.30;100985.72;7367013;19;20083;-65
2022/06/06 12:00:33;;;;;;;0.10;0.10;;;;;;;28.52;39.41;100985.59;7368342;19;20017;-64
2022/06/06 12:03:19;;;;;;;0.10;0.10;;;;;;;28.80;38.27;100985.69;7367062;19;20022;-62
2022/06/06 12:05:45;;;;;;;;;;;;;;;29.18;40.70;100990.09;7362439;19;20186;-64
2022/06/06 12:08:35;;;;;;;0.10;0.10;;;;;;;29.55;38.80;100986.50;7367880;19;19922;-63
2022/06/06 12:11:27;;;;;;;0.03;0.03;;;;;;;29.96;38.62;100985.13;7261560;19;2004319;-64
2022/06/06 12:14:14;;;;;;;0.00;0.00;;;;;;;30.07;33.55;100994.81;7261094;19;2004312;-60
2022/06/06 12:17:00;;;;;;;0.10;0.10;;;;;;;30.18;34.83;100987.34;7367732;19;20037;-64
2022/06/06 12:19:40;;;;;;;0.05;0.05;;;;;;;30.15;34.10;100993.03;7364041;19;19998;-64
2022/06/06 12:22:44;;;;;;;0.10;0.10;;;;;;;30.18;35.35;100992.75;7363878;19;20026;-64
2022/06/06 12:25:19;;;;;;;0.10;0.10;;;;;;;30.18;33.85;100987.34;7243831;19;2004234;-63
2022/06/06 12:27:50;;;;;;;0.10;0.10;;;;;;;30.35;33.72;100992.88;7355975;19;20059;-64
2022/06/06 12:30:40;;;;;;;0.10;0.10;;;;;;;30.56;34.97;100987.97;7357523;19;20066;-65
2022/06/06 12:33:18;;;;;;;0.10;0.10;;;;;;;30.78;33.74;100993.91;7356656;19;20018;-64
2022/06/06 12:35:57;;;;;;;0.10;0.10;;;;;;;30.95;32.35;100993.81;7354809;19;20015;-64
2022/06/06 12:39:11;;;;;;;0.10;0.10;;;;;;;31.33;35.18;100988.16;7358905;19;20007;-64
2022/06/06 12:41:55;;;;;;;0.00;0.00;;;;;;;31.66;33.81;100984.53;7254658;19;2004294;-64
2022/06/06 12:44:51;;;;;;;0.10;0.10;;;;;;;31.83;32.34;100984.56;7361807;19;20006;-64
2022/06/06 12:47:27;;;;;;;0.00;0.00;;;;;;;31.82;28.81;100993.69;7263251;19;2004347;-65